createdAt,value
2019-04-04T00:00:59.851Z,93920
2019-04-04T00:02:09.975Z,93912
2019-04-04T00:03:21.060Z,93905
2019-04-04T00:04:29.888Z,93907
2019-04-04T00:05:39.437Z,93904
2019-04-04T00:06:48.974Z,93901
2019-04-04T00:08:00.015Z,93898
2019-04-04T00:09:08.960Z,93898
2019-04-04T00:10:18.471Z,93902
2019-04-04T00:11:27.993Z,93902
2019-04-04T00:12:38.944Z,93902
2019-04-04T00:13:47.986Z,93904
2019-04-04T00:14:57.487Z,93902
2019-04-04T00:16:06.985Z,93900
2019-04-04T00:17:17.512Z,93901
2019-04-04T00:18:27.349Z,93900
2019-04-04T00:19:36.492Z,93896
2019-04-04T00:20:46.001Z,93897
2019-04-04T00:21:55.507Z,93890
2019-04-04T00:23:06.865Z,93879
2019-04-04T00:24:15.498Z,93885
2019-04-04T00:25:24.996Z,93882
2019-04-04T00:26:34.505Z,93877
2019-04-04T00:27:44.995Z,93867
2019-04-04T00:28:54.526Z,93863
2019-04-04T00:30:04.012Z,93860
2019-04-04T00:31:13.527Z,93859
2019-04-04T00:32:23.037Z,93859
2019-04-04T00:33:32.544Z,93857
2019-04-04T00:34:42.059Z,93849
2019-04-04T00:35:51.563Z,93849
2019-04-04T00:37:01.124Z,93852
2019-04-04T00:38:10.624Z,93854
2019-04-04T00:39:20.122Z,93857
2019-04-04T00:40:29.642Z,93858
2019-04-04T00:41:39.151Z,93853
2019-04-04T00:42:48.656Z,93857
2019-04-04T00:43:58.191Z,93855
2019-04-04T00:45:07.695Z,93848
2019-04-04T00:46:17.209Z,93841
2019-04-04T00:47:26.716Z,93840
2019-04-04T00:48:36.198Z,93834
2019-04-04T00:49:45.704Z,93828
2019-04-04T00:50:55.205Z,93834
2019-04-04T00:52:04.717Z,93835
2019-04-04T00:53:14.208Z,93838
2019-04-04T00:54:23.717Z,93827
2019-04-04T00:55:33.225Z,93823
2019-04-04T00:56:42.741Z,93817
2019-04-04T00:57:52.256Z,93817
2019-04-04T00:59:01.757Z,93822
2019-04-04T01:00:11.266Z,93817
2019-04-04T01:01:20.782Z,93822
2019-04-04T01:02:30.284Z,93821
2019-04-04T01:03:39.796Z,93820
2019-04-04T01:04:49.303Z,93819
2019-04-04T01:05:58.821Z,93815
2019-04-04T01:07:08.312Z,93806
2019-04-04T01:08:17.844Z,93808
2019-04-04T01:09:27.349Z,93808
2019-04-04T01:10:36.860Z,93811
2019-04-04T01:11:46.362Z,93804
2019-04-04T01:12:55.877Z,93805
2019-04-04T01:14:05.379Z,93802
2019-04-04T01:15:14.890Z,93802
2019-04-04T01:16:24.404Z,93794
2019-04-04T01:17:35.637Z,93798
2019-04-04T01:18:44.428Z,93798
2019-04-04T01:19:53.940Z,93801
2019-04-04T01:21:03.471Z,93801
2019-04-04T01:22:12.977Z,93797
2019-04-04T01:23:22.492Z,93800
2019-04-04T01:24:31.978Z,93798
2019-04-04T01:25:41.484Z,93797
2019-04-04T01:26:50.985Z,93797
2019-04-04T01:28:00.506Z,93792
2019-04-04T01:29:11.215Z,93794
2019-04-04T01:30:20.489Z,93790
2019-04-04T01:31:29.995Z,93789
2019-04-04T01:32:39.506Z,93789
2019-04-04T01:33:51.540Z,93788
2019-04-04T01:34:59.508Z,93789
2019-04-04T01:36:09.012Z,93787
2019-04-04T01:37:18.520Z,93792
2019-04-04T01:38:29.736Z,93776
2019-04-04T01:39:38.530Z,93776
2019-04-04T01:40:48.034Z,93774
2019-04-04T01:41:57.537Z,93775
2019-04-04T01:43:09.214Z,93773
2019-04-04T01:44:17.531Z,93769
2019-04-04T01:45:27.037Z,93771
2019-04-04T01:46:36.545Z,93780
2019-04-04T01:47:47.960Z,93777
2019-04-04T01:48:56.550Z,93781
2019-04-04T01:50:06.053Z,93779
2019-04-04T01:51:15.561Z,93777
2019-04-04T01:52:28.570Z,93775
2019-04-04T01:53:35.592Z,93776
2019-04-04T01:54:45.076Z,93777
2019-04-04T01:55:54.579Z,93779
2019-04-04T01:57:04.079Z,93776
2019-04-04T01:58:13.590Z,93773
2019-04-04T01:59:23.108Z,93771
2019-04-04T02:00:32.612Z,93769
2019-04-04T02:01:42.116Z,93764
2019-04-04T02:02:51.818Z,93764
2019-04-04T02:04:01.127Z,93764
2019-04-04T02:05:10.654Z,93768
2019-04-04T02:06:20.166Z,93756
2019-04-04T02:07:30.658Z,93754
2019-04-04T02:08:40.193Z,93757
2019-04-04T02:09:49.708Z,93747
2019-04-04T02:10:59.212Z,93750
2019-04-04T02:12:08.705Z,93754
2019-04-04T02:13:18.264Z,93757
2019-04-04T02:14:27.778Z,93752
2019-04-04T02:15:37.281Z,93746
2019-04-04T02:16:50.752Z,93749
2019-04-04T02:17:57.271Z,93752
2019-04-04T02:19:06.798Z,93745
2019-04-04T02:20:16.311Z,93742
2019-04-04T02:21:28.433Z,93741
2019-04-04T02:22:35.308Z,93738
2019-04-04T02:23:44.823Z,93739
2019-04-04T02:24:54.324Z,93737
2019-04-04T02:26:05.112Z,93730
2019-04-04T02:27:14.342Z,93729
2019-04-04T02:28:23.843Z,93723
2019-04-04T02:29:33.414Z,93723
2019-04-04T02:30:47.967Z,93731
2019-04-04T02:31:54.466Z,93723
2019-04-04T02:33:02.911Z,93726
2019-04-04T02:34:12.428Z,93727
2019-04-04T02:35:21.932Z,93723
2019-04-04T02:36:31.443Z,93716
2019-04-04T02:37:40.940Z,93723
2019-04-04T02:38:50.457Z,93720
2019-04-04T02:40:00.954Z,93715
2019-04-04T02:41:14.844Z,93705
2019-04-04T02:42:22.067Z,93706
2019-04-04T02:43:30.423Z,93705
2019-04-04T02:44:39.942Z,93699
2019-04-04T02:45:49.445Z,93702
2019-04-04T02:46:58.954Z,93690
2019-04-04T02:48:08.453Z,93689
2019-04-04T02:49:17.998Z,93694
2019-04-04T02:50:28.477Z,93699
2019-04-04T02:51:41.024Z,93693
2019-04-04T02:52:48.450Z,93687
2019-04-04T02:53:58.966Z,93684
2019-04-04T02:55:08.480Z,93684
2019-04-04T02:56:17.972Z,93688
2019-04-04T02:57:27.484Z,93690
2019-04-04T02:58:36.979Z,93685
2019-04-04T02:59:47.491Z,93677
2019-04-04T03:01:00.243Z,93679
2019-04-04T03:02:06.449Z,93677
2019-04-04T03:03:15.958Z,93673
2019-04-04T03:04:25.476Z,93668
2019-04-04T03:05:35.002Z,93675
2019-04-04T03:06:44.501Z,93674
2019-04-04T03:07:54.010Z,93675
2019-04-04T03:09:08.822Z,93665
2019-04-04T03:10:16.306Z,93665
2019-04-04T03:11:23.481Z,93662
2019-04-04T03:12:32.987Z,93659
2019-04-04T03:13:42.486Z,93655
2019-04-04T03:14:52.002Z,93656
2019-04-04T03:16:01.514Z,93659
2019-04-04T03:17:11.021Z,93660
2019-04-04T03:18:20.528Z,93656
2019-04-04T03:19:30.116Z,93654
2019-04-04T03:20:39.607Z,93653
2019-04-04T03:21:50.111Z,93643
2019-04-04T03:23:00.479Z,93634
2019-04-04T03:24:09.086Z,93627
2019-04-04T03:25:18.607Z,93638
2019-04-04T03:26:28.117Z,93635
2019-04-04T03:27:37.619Z,93634
2019-04-04T03:28:47.124Z,93631
2019-04-04T03:29:56.645Z,93631
2019-04-04T03:31:06.146Z,93628
2019-04-04T03:32:16.591Z,93628
2019-04-04T03:33:29.561Z,93622
2019-04-04T03:34:35.609Z,93621
2019-04-04T03:35:46.115Z,93615
2019-04-04T03:36:55.630Z,93616
2019-04-04T03:38:06.125Z,93611
2019-04-04T03:39:19.094Z,93600
2019-04-04T03:40:26.090Z,93597
2019-04-04T03:41:36.173Z,93596
2019-04-04T03:42:45.077Z,93604
2019-04-04T03:43:54.584Z,93606
2019-04-04T03:45:04.102Z,93606
2019-04-04T03:46:13.599Z,93599
2019-04-04T03:47:24.094Z,93607
2019-04-04T03:48:33.603Z,93605
2019-04-04T03:49:43.132Z,93600
2019-04-04T03:50:56.489Z,93593
2019-04-04T03:52:03.174Z,93589
2019-04-04T03:53:16.129Z,93588
2019-04-04T03:54:23.519Z,93594
2019-04-04T03:55:32.662Z,93595
2019-04-04T03:56:42.174Z,93590
2019-04-04T03:57:51.817Z,93581
2019-04-04T03:59:01.136Z,93581
2019-04-04T04:00:10.657Z,93592
2019-04-04T04:01:20.160Z,93603
2019-04-04T04:02:29.667Z,93598
2019-04-04T04:03:39.166Z,93588
2019-04-04T04:04:48.671Z,93576
2019-04-04T04:05:58.199Z,93572
2019-04-04T04:07:08.698Z,93578
2019-04-04T04:08:20.797Z,93571
2019-04-04T04:09:27.668Z,93564
2019-04-04T04:10:37.178Z,93562
2019-04-04T04:11:46.677Z,93565
2019-04-04T04:12:56.186Z,93559
2019-04-04T04:14:05.713Z,93551
2019-04-04T04:15:15.220Z,93553
2019-04-04T04:16:24.742Z,93554
2019-04-04T04:17:36.342Z,93552
2019-04-04T04:18:45.736Z,93548
2019-04-04T04:19:56.260Z,93546
2019-04-04T04:21:09.561Z,93541
2019-04-04T04:22:19.195Z,93541
2019-04-04T04:23:25.699Z,93535
2019-04-04T04:24:35.201Z,93540
2019-04-04T04:25:44.731Z,93532
2019-04-04T04:26:54.221Z,93533
2019-04-04T04:28:03.723Z,93524
2019-04-04T04:29:13.227Z,93532
2019-04-04T04:30:22.743Z,93526
2019-04-04T04:31:32.268Z,93516
2019-04-04T04:32:41.771Z,93512
2019-04-04T04:33:51.275Z,93515
2019-04-04T04:35:01.960Z,93520
2019-04-04T04:36:15.068Z,93511
2019-04-04T04:37:21.763Z,93505
2019-04-04T04:38:31.262Z,93503
2019-04-04T04:39:41.292Z,93497
2019-04-04T04:40:50.285Z,93493
2019-04-04T04:41:59.792Z,93491
2019-04-04T04:43:09.299Z,93491
2019-04-04T04:44:18.806Z,93485
2019-04-04T04:45:28.316Z,93492
2019-04-04T04:46:37.834Z,93482
2019-04-04T04:47:47.356Z,93484
2019-04-04T04:48:57.842Z,93485
2019-04-04T04:50:09.468Z,93481
2019-04-04T04:51:16.833Z,93484
2019-04-04T04:52:26.330Z,93490
2019-04-04T04:53:35.834Z,93493
2019-04-04T04:54:45.332Z,93492
2019-04-04T04:55:59.372Z,93488
2019-04-04T04:57:05.333Z,93482
2019-04-04T04:58:15.809Z,93481
2019-04-04T04:59:25.318Z,93479
2019-04-04T05:00:34.819Z,93476
2019-04-04T05:01:44.333Z,93477
2019-04-04T05:02:53.881Z,93488
2019-04-04T05:04:03.320Z,93497
2019-04-04T05:05:12.818Z,93487
2019-04-04T05:06:22.334Z,93480
2019-04-04T05:07:31.833Z,93485
2019-04-04T05:08:42.310Z,93478
2019-04-04T05:09:51.812Z,93477
2019-04-04T05:11:01.314Z,93482
2019-04-04T05:12:10.826Z,93471
2019-04-04T05:13:20.329Z,93466
2019-04-04T05:14:30.895Z,93465
2019-04-04T05:15:40.401Z,93469
2019-04-04T05:16:49.905Z,93464
2019-04-04T05:17:59.410Z,93470
2019-04-04T05:19:08.913Z,93457
2019-04-04T05:20:18.420Z,93465
2019-04-04T05:21:29.021Z,93468
2019-04-04T05:22:39.933Z,93458
2019-04-04T05:23:47.890Z,93447
2019-04-04T05:25:07.730Z,93440
2019-04-04T05:26:09.634Z,93449
2019-04-04T05:27:17.374Z,93453
2019-04-04T05:28:26.888Z,93447
2019-04-04T05:29:36.365Z,93439
2019-04-04T05:30:47.728Z,93437
2019-04-04T05:31:56.429Z,93436
2019-04-04T05:33:05.909Z,93432
2019-04-04T05:34:15.410Z,93433
2019-04-04T05:35:24.916Z,93430
2019-04-04T05:36:36.725Z,93429
2019-04-04T05:37:45.426Z,93431
2019-04-04T05:38:55.154Z,93427
2019-04-04T05:40:04.673Z,93418
2019-04-04T05:41:16.393Z,93423
2019-04-04T05:42:23.697Z,93422
2019-04-04T05:43:35.248Z,93414
2019-04-04T05:44:43.676Z,93409
2019-04-04T05:45:53.176Z,93399
2019-04-04T05:47:02.712Z,93404
2019-04-04T05:48:12.204Z,93409
2019-04-04T05:49:21.703Z,93412
2019-04-04T05:50:31.199Z,93408
2019-04-04T05:51:40.716Z,93396
2019-04-04T05:52:51.204Z,93389
2019-04-04T05:54:00.727Z,93385
2019-04-04T05:55:11.210Z,93383
2019-04-04T05:56:20.736Z,93376
2019-04-04T05:57:30.215Z,93390
2019-04-04T05:58:39.712Z,93377
2019-04-04T05:59:49.213Z,93374
2019-04-04T06:01:01.489Z,93379
2019-04-04T06:02:10.985Z,93382
2019-04-04T06:03:17.727Z,93373
2019-04-04T06:04:27.210Z,93356
2019-04-04T06:05:36.705Z,93350
2019-04-04T06:06:46.257Z,93353
2019-04-04T06:07:56.766Z,93357
2019-04-04T06:09:06.274Z,93366
2019-04-04T06:10:18.363Z,93363
2019-04-04T06:11:26.247Z,93361
2019-04-04T06:12:37.429Z,93354
2019-04-04T06:13:45.237Z,93364
2019-04-04T06:14:54.737Z,93372
2019-04-04T06:16:04.869Z,93350
2019-04-04T06:17:13.739Z,93351
2019-04-04T06:18:23.238Z,93339
2019-04-04T06:19:32.742Z,93330
2019-04-04T06:20:42.237Z,93335
2019-04-04T06:21:51.751Z,93343
2019-04-04T06:23:01.253Z,93349
2019-04-04T06:24:10.764Z,93339
2019-04-04T06:25:20.261Z,93352
2019-04-04T06:26:29.774Z,93344
2019-04-04T06:27:40.960Z,93328
2019-04-04T06:28:49.770Z,93325
2019-04-04T06:29:59.274Z,93330
2019-04-04T06:31:08.773Z,93320
2019-04-04T06:32:18.288Z,93314
2019-04-04T06:33:27.783Z,93304
2019-04-04T06:34:38.280Z,93300
2019-04-04T06:35:48.011Z,93307
2019-04-04T06:36:57.292Z,93312
2019-04-04T06:38:06.789Z,93314
2019-04-04T06:39:16.290Z,93294
2019-04-04T06:40:28.033Z,93289
2019-04-04T06:41:36.272Z,93287
2019-04-04T06:42:45.803Z,93273
2019-04-04T06:43:55.310Z,93276
2019-04-04T06:45:04.807Z,93273
2019-04-04T06:46:14.304Z,93272
2019-04-04T06:47:25.412Z,93278
2019-04-04T06:48:35.276Z,93271
2019-04-04T06:49:45.856Z,93267
2019-04-04T06:50:54.265Z,93264
2019-04-04T06:52:03.784Z,93257
2019-04-04T06:53:13.275Z,93262
2019-04-04T06:54:25.511Z,93253
2019-04-04T06:55:33.633Z,93255
2019-04-04T06:56:42.742Z,93259
2019-04-04T06:57:52.289Z,93251
2019-04-04T06:59:01.787Z,93252
2019-04-04T07:00:15.286Z,93257
2019-04-04T07:01:22.119Z,93245
2019-04-04T07:02:31.281Z,93252
2019-04-04T07:03:40.781Z,93253
2019-04-04T07:04:50.287Z,93239
2019-04-04T07:05:59.790Z,93244
2019-04-04T07:07:12.401Z,93251
2019-04-04T07:08:18.816Z,93243
2019-04-04T07:09:28.293Z,93246
2019-04-04T07:10:38.784Z,93255
2019-04-04T07:11:49.279Z,93258
2019-04-04T07:13:09.622Z,93256
2019-04-04T07:14:09.297Z,93251
2019-04-04T07:15:18.796Z,93249
2019-04-04T07:16:28.293Z,93243
2019-04-04T07:17:40.238Z,93251
2019-04-04T07:18:48.292Z,93259
2019-04-04T07:19:57.783Z,93256
2019-04-04T07:21:07.286Z,93256
2019-04-04T07:22:16.800Z,93258
2019-04-04T07:23:28.372Z,93265
2019-04-04T07:24:36.759Z,93266
2019-04-04T07:25:46.261Z,93261
2019-04-04T07:26:56.749Z,93240
2019-04-04T07:28:06.263Z,93244
2019-04-04T07:29:15.762Z,93243
2019-04-04T07:30:28.326Z,93249
2019-04-04T07:31:38.248Z,93259
2019-04-04T07:32:45.239Z,93265
2019-04-04T07:33:54.735Z,93255
2019-04-04T07:35:04.235Z,93257
2019-04-04T07:36:13.747Z,93258
2019-04-04T07:37:23.237Z,93267
2019-04-04T07:38:34.990Z,93265
2019-04-04T07:39:42.255Z,93270
2019-04-04T07:40:52.742Z,93265
2019-04-04T07:42:02.254Z,93262
2019-04-04T07:43:11.768Z,93262
2019-04-04T07:44:23.268Z,93259
2019-04-04T07:45:31.744Z,93261
2019-04-04T07:46:45.484Z,93266
2019-04-04T07:47:51.731Z,93266
2019-04-04T07:49:01.229Z,93262
2019-04-04T07:50:10.730Z,93256
2019-04-04T07:51:20.231Z,93260
2019-04-04T07:52:32.698Z,93262
2019-04-04T07:53:40.227Z,93263
2019-04-04T07:54:49.731Z,93260
2019-04-04T07:55:59.228Z,93256
2019-04-04T07:57:08.729Z,93263
2019-04-04T07:58:18.254Z,93259
2019-04-04T07:59:27.755Z,93260
2019-04-04T08:00:37.249Z,93261
2019-04-04T08:01:51.141Z,93263
2019-04-04T08:02:56.243Z,93256
2019-04-04T08:04:06.682Z,93254
2019-04-04T08:05:15.242Z,93248
2019-04-04T08:06:24.740Z,93248
2019-04-04T08:07:34.250Z,93251
2019-04-04T08:08:43.759Z,93256
2019-04-04T08:09:53.258Z,93251
2019-04-04T08:11:02.763Z,93255
2019-04-04T08:12:12.265Z,93260
2019-04-04T08:13:21.778Z,93267
2019-04-04T08:14:31.287Z,93263
2019-04-04T08:15:40.789Z,93265
2019-04-04T08:16:50.286Z,93264
2019-04-04T08:17:59.783Z,93267
2019-04-04T08:19:09.290Z,93270
2019-04-04T08:20:18.790Z,93265
2019-04-04T08:21:28.294Z,93270
2019-04-04T08:22:39.661Z,93267
2019-04-04T08:23:47.312Z,93263
2019-04-04T08:24:56.814Z,93264
2019-04-04T08:26:06.308Z,93264
2019-04-04T08:27:15.805Z,93266
2019-04-04T08:28:25.319Z,93270
2019-04-04T08:29:34.818Z,93263
2019-04-04T08:30:44.316Z,93259
2019-04-04T08:31:53.817Z,93264
2019-04-04T08:33:03.316Z,93266
2019-04-04T08:34:12.833Z,93260
2019-04-04T08:35:22.334Z,93259
2019-04-04T08:36:31.835Z,93252
2019-04-04T08:37:41.333Z,93258
2019-04-04T08:38:50.845Z,93255
2019-04-04T08:40:00.350Z,93261
2019-04-04T08:41:09.847Z,93263
2019-04-04T08:42:19.353Z,93259
2019-04-04T08:43:28.906Z,93260
2019-04-04T08:44:38.424Z,93264
2019-04-04T08:45:47.922Z,93266
2019-04-04T08:46:57.426Z,93273
2019-04-04T08:48:06.934Z,93272
2019-04-04T08:49:16.452Z,93279
2019-04-04T08:50:25.951Z,93283
2019-04-04T08:51:35.451Z,93284
2019-04-04T08:52:44.984Z,93279
2019-04-04T08:53:54.502Z,93280
2019-04-04T08:55:04.001Z,93278
2019-04-04T08:56:13.510Z,93278
2019-04-04T08:57:23.009Z,93281
2019-04-04T08:58:32.518Z,93284
2019-04-04T08:59:42.029Z,93280
2019-04-04T09:00:51.531Z,93281
2019-04-04T09:02:01.030Z,93281
2019-04-04T09:03:10.531Z,93288
2019-04-04T09:04:20.043Z,93289
2019-04-04T09:05:29.543Z,93294
2019-04-04T09:06:39.048Z,93292
2019-04-04T09:07:48.551Z,93291
2019-04-04T09:08:58.079Z,93304
2019-04-04T09:10:07.634Z,93301
2019-04-04T09:11:17.105Z,93313
2019-04-04T09:12:26.629Z,93323
2019-04-04T09:13:36.126Z,93321
2019-04-04T09:14:45.637Z,93329
2019-04-04T09:15:55.138Z,93334
2019-04-04T09:17:04.638Z,93337
2019-04-04T09:18:14.143Z,93347
2019-04-04T09:19:23.659Z,93346
2019-04-04T09:20:33.178Z,93346
2019-04-04T09:21:42.688Z,93347
2019-04-04T09:22:52.203Z,93349
2019-04-04T09:24:01.709Z,93349
2019-04-04T09:25:11.213Z,93356
2019-04-04T09:26:20.788Z,93358
2019-04-04T09:27:30.220Z,93352
2019-04-04T09:28:39.716Z,93359
2019-04-04T09:29:49.236Z,93360
2019-04-04T09:30:58.734Z,93364
2019-04-04T09:32:08.234Z,93362
2019-04-04T09:33:17.792Z,93367
2019-04-04T09:34:27.235Z,93369
2019-04-04T09:35:36.751Z,93373
2019-04-04T09:36:46.257Z,93372
2019-04-04T09:37:55.754Z,93371
2019-04-04T09:39:05.318Z,93386
2019-04-04T09:40:14.818Z,93387
2019-04-04T09:41:24.317Z,93383
2019-04-04T09:42:33.815Z,93383
2019-04-04T09:43:43.318Z,93385
2019-04-04T09:44:52.839Z,93392
2019-04-04T09:46:02.337Z,93392
2019-04-04T09:47:11.883Z,93380
2019-04-04T09:48:21.334Z,93380
2019-04-04T09:49:30.847Z,93380
2019-04-04T09:50:40.357Z,93389
2019-04-04T09:51:49.861Z,93391
2019-04-04T09:52:59.364Z,93397
2019-04-04T09:54:08.863Z,93390
2019-04-04T09:55:18.406Z,93389
2019-04-04T09:56:27.898Z,93398
2019-04-04T09:57:37.408Z,93394
2019-04-04T09:58:46.904Z,93393
2019-04-04T09:59:57.411Z,93392
2019-04-04T10:01:06.953Z,93393
2019-04-04T10:02:16.398Z,93398
2019-04-04T10:03:25.904Z,93392
2019-04-04T10:04:35.415Z,93392
2019-04-04T10:05:44.915Z,93398
2019-04-04T10:06:54.412Z,93383
2019-04-04T10:08:03.915Z,93397
2019-04-04T10:09:15.776Z,93390
2019-04-04T10:10:22.904Z,93389
2019-04-04T10:11:32.429Z,93393
2019-04-04T10:12:41.910Z,93403
2019-04-04T10:13:51.418Z,93402
2019-04-04T10:15:00.928Z,93403
2019-04-04T10:16:10.436Z,93404
2019-04-04T10:17:19.933Z,93408
2019-04-04T10:18:29.436Z,93406
2019-04-04T10:19:38.964Z,93409
2019-04-04T10:20:48.478Z,93418
2019-04-04T10:21:57.976Z,93418
2019-04-04T10:23:07.477Z,93406
2019-04-04T10:24:16.978Z,93398
2019-04-04T10:25:26.503Z,93399
2019-04-04T10:26:36.002Z,93396
2019-04-04T10:27:45.509Z,93397
2019-04-04T10:28:55.025Z,93403
2019-04-04T10:30:04.545Z,93397
2019-04-04T10:31:14.038Z,93410
2019-04-04T10:32:23.541Z,93405
2019-04-04T10:33:33.042Z,93396
2019-04-04T10:34:43.527Z,93406
2019-04-04T10:35:53.038Z,93403
2019-04-04T10:37:02.547Z,93399
2019-04-04T10:38:12.050Z,93402
2019-04-04T10:39:28.526Z,93404
2019-04-04T10:40:32.038Z,93412
2019-04-04T10:41:41.545Z,93412
2019-04-04T10:42:51.047Z,93407
2019-04-04T10:44:00.546Z,93411
2019-04-04T10:45:10.075Z,93411
2019-04-04T10:46:19.590Z,93414
2019-04-04T10:47:29.089Z,93417
2019-04-04T10:48:38.590Z,93420
2019-04-04T10:49:48.093Z,93412
2019-04-04T10:50:57.608Z,93415
2019-04-04T10:52:07.115Z,93432
2019-04-04T10:53:16.614Z,93429
2019-04-04T10:54:26.103Z,93437
2019-04-04T10:55:35.610Z,93422
2019-04-04T10:56:45.105Z,93409
2019-04-04T10:57:54.601Z,93415
2019-04-04T10:59:04.103Z,93424
2019-04-04T11:00:13.621Z,93427
2019-04-04T11:01:23.124Z,93424
2019-04-04T11:02:32.629Z,93414
2019-04-04T11:03:42.133Z,93415
2019-04-04T11:04:51.639Z,93417
2019-04-04T11:06:01.168Z,93421
2019-04-04T11:07:10.670Z,93424
2019-04-04T11:08:20.172Z,93417
2019-04-04T11:09:41.250Z,93410
2019-04-04T11:10:40.161Z,93418
2019-04-04T11:11:49.666Z,93417
2019-04-04T11:12:59.165Z,93421
2019-04-04T11:14:08.656Z,93417
2019-04-04T11:15:18.155Z,93422
2019-04-04T11:16:30.205Z,93422
2019-04-04T11:17:37.171Z,93417
2019-04-04T11:18:46.667Z,93421
2019-04-04T11:19:56.171Z,93426
2019-04-04T11:21:05.681Z,93421
2019-04-04T11:22:15.209Z,93415
2019-04-04T11:23:24.710Z,93413
2019-04-04T11:24:34.226Z,93420
2019-04-04T11:25:43.734Z,93416
2019-04-04T11:26:53.235Z,93417
2019-04-04T11:28:03.729Z,93411
2019-04-04T11:29:13.232Z,93413
2019-04-04T11:30:22.746Z,93416
2019-04-04T11:31:32.270Z,93412
2019-04-04T11:32:41.770Z,93421
2019-04-04T11:33:52.257Z,93429
2019-04-04T11:35:01.757Z,93437
2019-04-04T11:36:11.274Z,93428
2019-04-04T11:37:20.783Z,93422
2019-04-04T11:38:30.286Z,93420
2019-04-04T11:39:39.785Z,93419
2019-04-04T11:40:50.282Z,93414
2019-04-04T11:41:59.781Z,93421
2019-04-04T11:43:09.276Z,93421
2019-04-04T11:44:18.788Z,93412
2019-04-04T11:45:28.411Z,93416
2019-04-04T11:46:37.931Z,93419
2019-04-04T11:47:47.431Z,93422
2019-04-04T11:48:56.934Z,93428
2019-04-04T11:50:06.430Z,93424
2019-04-04T11:51:15.942Z,93421
2019-04-04T11:52:25.452Z,93422
2019-04-04T11:53:34.953Z,93418
2019-04-04T11:54:44.459Z,93420
2019-04-04T11:55:53.994Z,93418
2019-04-04T11:57:03.493Z,93422
2019-04-04T11:58:12.994Z,93426
2019-04-04T11:59:22.502Z,93418
2019-04-04T12:00:32.005Z,93424
2019-04-04T12:01:41.521Z,93417
2019-04-04T12:02:51.019Z,93423
2019-04-04T12:04:00.517Z,93425
2019-04-04T12:05:17.075Z,93431
2019-04-04T12:06:26.609Z,93430
2019-04-04T12:07:38.328Z,93431
2019-04-04T12:08:45.660Z,93430
2019-04-04T12:10:06.660Z,93429
2019-04-04T12:11:05.711Z,93429
2019-04-04T12:12:15.241Z,93425
2019-04-04T12:13:24.769Z,93423
2019-04-04T12:14:34.298Z,93422
2019-04-04T12:15:43.845Z,93423
2019-04-04T12:16:53.360Z,93425
2019-04-04T12:18:02.894Z,93411
2019-04-04T12:19:12.424Z,93413
2019-04-04T12:20:21.951Z,93410
2019-04-04T12:21:31.478Z,93407
2019-04-04T12:22:41.005Z,93411
2019-04-04T12:23:51.476Z,93410
2019-04-04T12:25:00.117Z,93420
2019-04-04T12:26:09.683Z,93418
2019-04-04T12:27:19.231Z,93418
2019-04-04T12:28:28.799Z,93423
2019-04-04T12:29:38.351Z,93436
2019-04-04T12:30:47.964Z,93427
2019-04-04T12:31:57.516Z,93431
2019-04-04T12:33:07.037Z,93435
2019-04-04T12:34:16.562Z,93431
2019-04-04T12:35:26.116Z,93439
2019-04-04T12:36:35.660Z,93437
2019-04-04T12:37:45.182Z,93435
2019-04-04T12:38:54.702Z,93434
2019-04-04T12:40:04.223Z,93434
2019-04-04T12:41:14.751Z,93431
2019-04-04T12:42:24.257Z,93431
2019-04-04T12:43:33.786Z,93424
2019-04-04T12:44:43.298Z,93424
2019-04-04T12:45:52.891Z,93431
2019-04-04T12:47:02.384Z,93425
2019-04-04T12:48:11.907Z,93432
2019-04-04T12:49:21.434Z,93428
2019-04-04T12:50:30.955Z,93432
2019-04-04T12:51:40.518Z,93430
2019-04-04T12:52:50.060Z,93436
2019-04-04T12:53:59.583Z,93431
2019-04-04T12:55:09.109Z,93430
2019-04-04T12:56:18.664Z,93444
2019-04-04T12:57:28.177Z,93452
2019-04-04T12:58:37.694Z,93440
2019-04-04T12:59:47.230Z,93432
2019-04-04T13:00:56.739Z,93449
2019-04-04T13:02:06.288Z,93454
2019-04-04T13:03:15.806Z,93448
2019-04-04T13:04:31.319Z,93458
2019-04-04T13:05:34.830Z,93457
2019-04-04T13:06:44.413Z,93452
2019-04-04T13:07:53.921Z,93445
2019-04-04T13:09:03.483Z,93457
2019-04-04T13:10:12.999Z,93462
2019-04-04T13:11:22.528Z,93459
2019-04-04T13:12:32.102Z,93458
2019-04-04T13:13:41.629Z,93465
2019-04-04T13:14:51.131Z,93470
2019-04-04T13:16:00.695Z,93467
2019-04-04T13:17:10.261Z,93456
2019-04-04T13:18:19.796Z,93464
2019-04-04T13:19:29.341Z,93469
2019-04-04T13:20:38.869Z,93482
2019-04-04T13:21:48.416Z,93478
2019-04-04T13:22:57.996Z,93480
2019-04-04T13:24:07.518Z,93473
2019-04-04T13:25:17.038Z,93477
2019-04-04T13:26:26.569Z,93463
2019-04-04T13:27:36.101Z,93471
2019-04-04T13:28:45.632Z,93473
2019-04-04T13:29:55.180Z,93478
2019-04-04T13:31:04.688Z,93466
2019-04-04T13:32:14.256Z,93480
2019-04-04T13:33:23.765Z,93479
2019-04-04T13:34:33.279Z,93499
2019-04-04T13:35:42.811Z,93505
2019-04-04T13:36:52.344Z,93502
2019-04-04T13:38:01.889Z,93502
2019-04-04T13:39:11.405Z,93510
2019-04-04T13:40:20.935Z,93514
2019-04-04T13:41:30.484Z,93538
2019-04-04T13:42:40.026Z,93514
2019-04-04T13:43:51.385Z,93527
2019-04-04T13:44:59.055Z,93538
2019-04-04T13:46:10.882Z,93503
2019-04-04T13:47:18.122Z,93539
2019-04-04T13:48:27.679Z,93532
2019-04-04T13:49:37.260Z,93527
2019-04-04T13:50:47.833Z,93537
2019-04-04T13:51:57.384Z,93549
2019-04-04T13:53:06.980Z,93554
2019-04-04T13:54:16.535Z,93563
2019-04-04T13:55:27.280Z,93566
2019-04-04T13:56:35.592Z,93589
2019-04-04T13:57:45.335Z,93556
2019-04-04T13:58:54.648Z,93570
2019-04-04T14:00:05.156Z,93559
2019-04-04T14:01:14.699Z,93551
2019-04-04T14:02:24.268Z,93588
2019-04-04T14:03:33.859Z,93579
2019-04-04T14:04:43.326Z,93572
2019-04-04T14:05:52.855Z,93578
2019-04-04T14:07:03.377Z,93585
2019-04-04T14:08:14.349Z,93606
2019-04-04T14:09:22.496Z,93591
2019-04-04T14:10:32.045Z,93609
2019-04-04T14:11:42.148Z,93590
2019-04-04T14:12:51.148Z,93589
2019-04-04T14:14:00.681Z,93601
2019-04-04T14:15:10.214Z,93602
2019-04-04T14:16:19.768Z,93585
2019-04-04T14:17:29.334Z,93594
2019-04-04T14:18:40.006Z,93612
2019-04-04T14:19:48.354Z,93610
2019-04-04T14:21:03.630Z,93620
2019-04-04T14:22:07.412Z,93624
2019-04-04T14:23:16.950Z,93614
2019-04-04T14:24:26.471Z,93614
2019-04-04T14:25:36.005Z,93648
2019-04-04T14:26:46.083Z,93640
2019-04-04T14:27:57.783Z,93636
2019-04-04T14:29:04.828Z,93630
2019-04-04T14:30:14.229Z,93655
2019-04-04T14:31:23.744Z,93665
2019-04-04T14:32:33.287Z,93651
2019-04-04T14:33:43.225Z,93656
2019-04-04T14:34:52.341Z,93647
2019-04-04T14:36:01.933Z,93649
2019-04-04T14:37:11.471Z,93678
2019-04-04T14:38:20.998Z,93699
2019-04-04T14:39:30.558Z,93666
2019-04-04T14:40:40.100Z,93676
2019-04-04T14:41:49.618Z,93673
2019-04-04T14:42:59.187Z,93663
2019-04-04T14:44:08.692Z,93670
2019-04-04T14:45:18.216Z,93669
2019-04-04T14:46:27.762Z,93686
2019-04-04T14:47:37.320Z,93679
2019-04-04T14:48:46.846Z,93675
2019-04-04T14:49:56.400Z,93677
2019-04-04T14:51:06.939Z,93685
2019-04-04T14:52:19.303Z,93685
2019-04-04T14:53:27.007Z,93672
2019-04-04T14:54:39.353Z,93675
2019-04-04T14:55:46.133Z,93667
2019-04-04T14:56:55.663Z,93682